BBRO2: Mountain Fork, Broken Bow Rereg

Data processed at Sat Dec 09 2017 23:33


All information presented herein is the property of the government of the United States of America and may be revised or deleted at any time without prior notice.
Dissemination of this information without the expressed written consent of the Public Affairs Office, Tulsa District U.S. Army Corps of Engineers is strictly prohibited.
These data are gathered electronically and, as presented, have not undergone any form of quality control. These data are not guaranteed to be valid or correct.
Go to home page.
Go to station list.

Upstream stations:

Downstream station:
Previous Day
Next Day
Current Day
    
SHEF ID:       BBRO2     Mountain Fork Re-regulation Dam
STATION TYPE:  

                STAGE  RIV-FLOW   VOLTAGE  BAT-LOAD
                   ft       cfs      volt      volt
              Ccp-Rev   Ccp-Rev   Ccp-Rev   Ccp-Rev
(US/Central)
12/07 00:00    390.73       818     13.50     13.30
12/07 01:00    390.46       712     13.50     13.30
12/07 02:00    390.21       613     13.50     13.24
12/07 03:00    390.00       530     13.50     13.24
12/07 04:00    389.80       494     13.50     13.24
12/07 05:00    389.63       464     13.50     13.30
12/07 06:00    389.48       437     13.50     13.24
12/07 07:00    389.33       410     13.50     13.24
12/07 08:00    389.22       390     13.50     13.24
12/07 09:00    389.09       367     13.50     13.24
12/07 10:00    388.98       347     13.50     13.30
12/07 11:00    388.89       331     13.50     13.30
12/07 12:00    388.80       315     13.50     13.30
12/07 13:00    388.73       303     13.50     12.83
12/07 14:00    388.66       290     13.50     13.30
12/07 15:00    388.58       276     13.50     13.24
12/07 16:00    388.53       267     13.50     13.30
12/07 17:00    388.46       254     13.50     13.30
12/07 18:00    388.80       315     13.50     13.30
12/07 19:00    391.86      1256     13.50     13.30
12/07 20:00    394.17      2402     13.50     13.30
12/07 21:00    395.53      3144     13.50     13.30
12/07 22:00    395.37      3055     13.50     13.24
12/07 23:00    394.63      2650     13.50     13.30